METAR Luftfahrt Wetterdaten     LSZH Zürich Airport
Temperatur
12°C Temperatur
9°C Taupunkt
82% Feuchtigkeit



Wind
2 KM/h
1 MPS
0 M/S
1 KTS



Kein Wind
Nord
Aktuelle Wetterlage

Meistens bewölkt Meistens bewölkt
Luftdruck 1022.92 (hPa) - 30.21 (inHg)
Sichtweite 6.2 (Meile) - 10 (Km)
Flughafen
Flughafen Code LSZH

Position : Zürich Airport
Entfernung: 60 (Km)

Metar:
LSZH 260120Z AUTO VRB01KT 9999 BKN070 12/09 Q1023 NOSIG

Zeit: 26-05-2022 03:20 CEST